Time;durP1;ratioP1;P1;durP2;ratioP2;P2;SDS_P1;SDS_P2;PMS_P1;PMS_P2;Temp;Humidity;BMP_temperature;BMP_pressure;BME280_temperature;BME280_humidity;BME280_pressure;Samples;Min_cycle;Max_cycle;Signal;HPM_P1;HPM_P2
2021/12/31 00:01:11;;;;;;;3.70;2.45;;;;;;;11.80;100.00;101235.03;6183484;28;20421;-78
2021/12/31 00:04:12;;;;;;;4.22;2.40;;;;;;;11.91;100.00;101228.34;6176630;28;20054;-78
2021/12/31 00:07:14;;;;;;;7.60;2.72;;;;;;;12.04;100.00;101230.34;6176731;28;20057;-77
2021/12/31 00:10:15;;;;;;;9.75;3.58;;;;;;;11.95;100.00;101236.94;6184574;28;20117;-77
2021/12/31 00:13:18;;;;;;;5.22;2.67;;;;;;;12.03;100.00;101231.25;6199984;28;20054;-78
2021/12/31 00:16:19;;;;;;;3.40;2.60;;;;;;;12.00;100.00;101227.00;6201101;28;20042;-77
2021/12/31 00:19:21;;;;;;;5.85;2.67;;;;;;;11.97;100.00;101228.94;6200288;28;20080;-78
2021/12/31 00:22:47;;;;;;;3.03;1.85;;;;;;;12.01;100.00;101235.75;6190447;28;20061;-77
2021/12/31 00:25:49;;;;;;;6.60;2.33;;;;;;;11.91;100.00;101225.69;6171346;28;20414;-77
2021/12/31 00:28:51;;;;;;;6.28;2.58;;;;;;;11.96;100.00;101220.19;6183178;28;20503;-80
2021/12/31 00:31:53;;;;;;;2.40;1.45;;;;;;;12.00;100.00;101227.00;6168478;28;20055;-77
2021/12/31 00:34:54;;;;;;;4.90;1.95;;;;;;;11.98;100.00;101222.75;6175419;28;20517;-77
2021/12/31 00:37:56;;;;;;;4.47;2.15;;;;;;;12.01;100.00;101223.44;6175054;28;20050;-76
2021/12/31 00:40:57;;;;;;;2.00;1.63;;;;;;;11.97;100.00;101223.69;6169964;28;20053;-77
2021/12/31 00:44:00;;;;;;;2.88;1.80;;;;;;;11.90;100.00;101226.63;6170985;28;20051;-77
2021/12/31 00:47:01;;;;;;;3.00;1.95;;;;;;;11.89;100.00;101224.91;6188683;28;20042;-77
2021/12/31 00:50:04;;;;;;;2.88;2.00;;;;;;;11.88;100.00;101233.75;6188737;28;20061;-77
2021/12/31 00:53:06;;;;;;;6.85;1.80;;;;;;;11.91;100.00;101235.38;6189838;28;20087;-77
2021/12/31 00:56:07;;;;;;;2.53;2.30;;;;;;;11.92;100.00;101235.31;6190540;28;20521;-77
2021/12/31 00:59:10;;;;;;;3.38;1.83;;;;;;;11.90;100.00;101244.22;6179919;28;20051;-77
2021/12/31 01:02:12;;;;;;;3.05;1.70;;;;;;;11.82;100.00;101236.72;6177201;28;20466;-77
2021/12/31 01:05:14;;;;;;;4.10;1.98;;;;;;;11.85;100.00;101239.16;6173437;28;20050;-76
2021/12/31 01:08:16;;;;;;;2.67;1.83;;;;;;;11.86;100.00;101238.25;6176822;28;20054;-77
2021/12/31 01:11:17;;;;;;;2.53;1.75;;;;;;;11.96;100.00;101238.63;6176265;28;20047;-76
2021/12/31 01:14:27;;;;;;;6.70;1.80;;;;;;;11.91;100.00;101246.78;6192643;28;20102;-77
2021/12/31 01:17:46;;;;;;;2.10;1.58;;;;;;;11.93;100.00;101242.25;6180636;28;20141;-76
2021/12/31 01:20:47;;;;;;;2.50;1.83;;;;;;;11.95;100.00;101254.53;6184235;28;20059;-77
2021/12/31 01:23:49;;;;;;;3.30;2.03;;;;;;;11.96;100.00;101253.59;6185686;28;20054;-76
2021/12/31 01:26:50;;;;;;;3.28;2.00;;;;;;;12.00;100.00;101260.41;6189834;28;20054;-76
2021/12/31 01:29:53;;;;;;;4.40;1.95;;;;;;;11.99;100.00;101248.16;6188148;28;20050;-77
2021/12/31 01:32:55;;;;;;;4.32;2.17;;;;;;;11.92;100.00;101252.88;6180205;28;20062;-77
2021/12/31 01:35:57;;;;;;;2.92;1.95;;;;;;;11.88;100.00;101251.34;6187736;28;20054;-77
2021/12/31 01:38:58;;;;;;;5.18;2.13;;;;;;;11.83;100.00;101248.94;6165612;28;20054;-78
2021/12/31 01:42:01;;;;;;;5.47;2.55;;;;;;;11.85;100.00;101252.34;6182440;28;20047;-77
2021/12/31 01:45:10;;;;;;;4.05;2.53;;;;;;;11.82;100.00;101252.50;6185842;28;20046;-77
2021/12/31 01:48:23;;;;;;;3.67;2.78;;;;;;;11.82;100.00;101252.50;6185107;28;20063;-76
2021/12/31 01:51:25;;;;;;;3.92;2.33;;;;;;;11.95;100.00;101244.84;6180195;28;20463;-77
2021/12/31 01:54:27;;;;;;;4.65;2.65;;;;;;;12.00;100.00;101252.50;6179019;28;20429;-78
2021/12/31 01:57:30;;;;;;;3.88;2.15;;;;;;;12.01;100.00;101248.94;6178706;28;20043;-78
2021/12/31 02:00:33;;;;;;;5.80;2.17;;;;;;;12.02;100.00;101245.38;6190363;28;20050;-78
2021/12/31 02:03:35;;;;;;;2.90;2.15;;;;;;;11.99;100.00;101254.28;6185586;28;20051;-77
2021/12/31 02:06:36;;;;;;;4.90;2.20;;;;;;;11.97;100.00;101256.13;6189661;28;20064;-77
2021/12/31 02:09:45;;;;;;;4.70;2.40;;;;;;;12.08;100.00;101255.56;6198219;28;20046;-77
2021/12/31 02:12:49;;;;;;;2.20;1.80;;;;;;;12.15;100.00;101260.47;6178061;28;20058;-77
2021/12/31 02:15:52;;;;;;;3.80;2.40;;;;;;;12.16;100.00;101256.03;6177433;28;20069;-77
2021/12/31 02:18:53;;;;;;;4.22;2.00;;;;;;;12.01;100.00;101259.47;6173821;28;20494;-77
2021/12/31 02:21:57;;;;;;;4.30;2.50;;;;;;;11.91;100.00;101270.47;6173165;28;20055;-77
2021/12/31 02:25:01;;;;;;;4.38;2.35;;;;;;;11.99;100.00;101263.94;6178881;28;20109;-77
2021/12/31 02:28:03;;;;;;;3.45;1.98;;;;;;;11.92;100.00;101272.19;6183732;28;20497;-77
2021/12/31 02:31:05;;;;;;;3.17;2.10;;;;;;;11.89;100.00;101276.75;6183780;28;20379;-77
2021/12/31 02:34:06;;;;;;;3.13;2.28;;;;;;;11.91;100.00;101270.47;6186214;28;20057;-77
2021/12/31 02:37:09;;;;;;;3.28;2.50;;;;;;;11.89;100.00;101276.75;6186412;28;20050;-77
2021/12/31 02:40:13;;;;;;;7.07;2.58;;;;;;;11.80;100.00;101272.75;6176736;28;20058;-76
2021/12/31 02:43:15;;;;;;;3.10;2.63;;;;;;;11.88;100.00;101286.44;6175422;28;20050;-77
2021/12/31 02:46:16;;;;;;;4.20;2.65;;;;;;;11.84;100.00;101282.25;6186636;28;20073;-77
2021/12/31 02:49:19;;;;;;;4.68;2.55;;;;;;;11.80;100.00;101292.97;6186733;28;20429;-76
2021/12/31 02:52:22;;;;;;;3.55;2.90;;;;;;;11.78;100.00;101282.53;6175055;28;20054;-78
2021/12/31 02:55:26;;;;;;;4.38;2.42;;;;;;;11.79;100.00;101284.22;6170240;28;20046;-77
2021/12/31 02:58:28;;;;;;;4.55;2.58;;;;;;;11.77;100.00;101282.59;6170426;28;20047;-78
2021/12/31 03:01:29;;;;;;;3.55;2.70;;;;;;;11.77;100.00;101275.56;6184699;28;20050;-78
2021/12/31 03:04:32;;;;;;;4.60;3.33;;;;;;;11.75;100.00;101273.91;6177382;28;20434;-78
2021/12/31 03:07:36;;;;;;;5.07;2.75;;;;;;;11.78;100.00;101263.25;6193196;28;20077;-76
2021/12/31 03:10:38;;;;;;;4.40;2.55;;;;;;;11.72;100.00;101261.78;6189301;28;20051;-76
2021/12/31 03:13:40;;;;;;;13.10;4.68;;;;;;;11.69;100.00;101270.66;6191280;28;20047;-76
2021/12/31 03:16:41;;;;;;;3.70;2.45;;;;;;;11.67;100.00;101264.63;6192865;28;20053;-76
2021/12/31 03:19:43;;;;;;;4.57;2.70;;;;;;;11.66;100.00;101259.41;6188506;28;20061;-75
2021/12/31 03:22:46;;;;;;;4.63;2.80;;;;;;;11.66;100.00;101251.53;6183587;28;20046;-75
2021/12/31 03:25:47;;;;;;;3.17;2.10;;;;;;;11.68;100.00;101255.81;6190899;28;20046;-77
2021/12/31 03:28:49;;;;;;;3.65;2.78;;;;;;;11.67;100.00;101255.84;6188424;28;20057;-77
2021/12/31 03:31:50;;;;;;;4.38;2.88;;;;;;;11.67;100.00;101250.59;6195817;28;20047;-76
2021/12/31 03:34:52;;;;;;;4.72;2.95;;;;;;;11.65;100.00;101248.03;6186454;28;20524;-76
2021/12/31 03:37:55;;;;;;;5.65;2.83;;;;;;;11.69;100.00;101254.88;6188872;28;20062;-77
2021/12/31 03:40:57;;;;;;;4.32;2.72;;;;;;;11.64;100.00;101246.34;6197616;28;20053;-75
2021/12/31 03:43:58;;;;;;;3.83;2.80;;;;;;;11.63;100.00;101251.69;6191359;28;20490;-77
2021/12/31 03:46:59;;;;;;;4.63;2.53;;;;;;;11.64;100.00;101251.63;6179874;28;20046;-77
2021/12/31 03:50:01;;;;;;;4.03;2.55;;;;;;;11.61;100.00;101248.28;6175372;28;20422;-78
2021/12/31 03:53:03;;;;;;;4.28;3.03;;;;;;;11.60;100.00;101247.44;6172552;28;20061;-77
2021/12/31 03:56:05;;;;;;;4.47;2.50;;;;;;;11.62;100.00;101248.19;6169631;28;20039;-78
2021/12/31 03:59:06;;;;;;;4.03;3.00;;;;;;;11.61;100.00;101245.63;6169820;28;20050;-78
2021/12/31 04:02:07;;;;;;;4.90;2.47;;;;;;;11.62;100.00;101248.19;6168646;28;20050;-78
2021/12/31 04:05:10;;;;;;;6.53;3.03;;;;;;;11.66;100.00;101235.72;6168607;28;20058;-78
2021/12/31 04:08:12;;;;;;;5.45;3.53;;;;;;;11.66;100.00;101231.31;6172699;28;20047;-78
2021/12/31 04:11:14;;;;;;;3.00;2.28;;;;;;;11.67;100.00;101235.66;6170304;28;20054;-78
2021/12/31 04:14:15;;;;;;;3.67;2.35;;;;;;;11.68;100.00;101229.47;6187310;28;20055;-77
2021/12/31 04:17:17;;;;;;;2.30;1.70;;;;;;;11.72;100.00;101230.19;6185485;28;20458;-78
2021/12/31 04:20:20;;;;;;;3.67;2.28;;;;;;;11.78;100.00;101219.31;6201893;28;20046;-78
2021/12/31 04:23:30;;;;;;;3.30;2.50;;;;;;;11.75;100.00;101223.88;6187215;28;20573;-77
2021/12/31 04:26:31;;;;;;;3.67;2.22;;;;;;;11.83;100.00;101224.38;6173109;28;20054;-76
2021/12/31 04:29:33;;;;;;;4.72;2.22;;;;;;;11.82;100.00;101226.19;6171349;28;20046;-76
2021/12/31 04:32:34;;;;;;;5.70;2.33;;;;;;;11.81;100.00;101232.34;6188008;28;20050;-78
2021/12/31 04:35:36;;;;;;;6.38;2.20;;;;;;;11.80;100.00;101219.22;6189080;28;20053;-76
2021/12/31 04:38:38;;;;;;;2.75;2.05;;;;;;;11.81;100.00;101232.34;6199130;28;20053;-78
2021/12/31 04:41:40;;;;;;;3.78;2.25;;;;;;;11.87;100.00;101229.41;6192492;28;20057;-77
2021/12/31 04:44:41;;;;;;;3.10;2.25;;;;;;;11.90;100.00;101239.81;6183402;28;20054;-77
2021/12/31 04:47:42;;;;;;;2.40;1.98;;;;;;;11.88;100.00;101223.22;6185440;28;20399;-77
2021/12/31 04:50:44;;;;;;;3.60;2.45;;;;;;;11.91;100.00;101224.84;6188042;28;20053;-77
2021/12/31 04:53:46;;;;;;;2.75;1.52;;;;;;;11.89;100.00;101229.34;6192628;28;20057;-78
2021/12/31 04:56:52;;;;;;;2.08;1.63;;;;;;;11.89;100.00;101234.59;6191565;28;20046;-78
2021/12/31 04:59:53;;;;;;;5.28;1.92;;;;;;;11.90;100.00;101225.78;6189418;28;20137;-79
2021/12/31 05:02:55;;;;;;;5.07;2.10;;;;;;;11.88;100.00;101227.63;6185143;28;20058;-78
2021/12/31 05:05:56;;;;;;;3.35;1.90;;;;;;;11.81;100.00;101231.47;6187870;28;20490;-78
2021/12/31 05:08:59;;;;;;;6.68;3.20;;;;;;;11.86;100.00;101238.25;6190431;28;20061;-79
2021/12/31 05:12:01;;;;;;;1.95;1.48;;;;;;;12.03;100.00;101240.00;6200425;28;20517;-79
2021/12/31 05:15:06;;;;;;;2.42;1.73;;;;;;;11.99;100.00;101227.97;6186500;28;20046;-79
2021/12/31 05:18:07;;;;;;;2.15;1.60;;;;;;;12.02;100.00;101225.13;6185918;28;20050;-79
2021/12/31 05:21:09;;;;;;;1.35;1.10;;;;;;;12.00;100.00;101223.53;6189748;28;20528;-78
2021/12/31 05:24:14;;;;;;;4.70;2.38;;;;;;;11.99;100.00;101227.97;6173901;28;20596;-78
2021/12/31 05:27:15;;;;;;;1.58;1.48;;;;;;;12.06;100.00;101223.22;6166324;28;20089;-78
2021/12/31 05:30:18;;;;;;;1.80;1.20;;;;;;;12.04;100.00;101211.91;6168231;28;20520;-79
2021/12/31 05:33:19;;;;;;;4.78;1.23;;;;;;;12.05;100.00;101219.72;6185730;28;20593;-78
2021/12/31 05:36:21;;;;;;;2.00;1.20;;;;;;;11.97;100.00;101215.78;6171047;28;20043;-79
2021/12/31 05:39:25;;;;;;;2.05;1.10;;;;;;;11.98;100.00;101212.22;6170107;28;20047;-79
2021/12/31 05:42:26;;;;;;;4.05;1.52;;;;;;;11.91;100.00;101209.06;6168302;28;20071;-78
2021/12/31 05:45:27;;;;;;;3.90;1.27;;;;;;;12.07;100.00;101217.00;6168553;28;20426;-79
2021/12/31 05:48:30;;;;;;;2.13;1.48;;;;;;;12.03;100.00;101212.81;6169648;28;20047;-78
2021/12/31 05:51:31;;;;;;;2.22;1.30;;;;;;;12.10;100.00;101222.13;6185892;28;20058;-80
2021/12/31 05:54:34;;;;;;;2.38;1.52;;;;;;;12.04;100.00;101211.91;6191354;28;20509;-80
2021/12/31 05:57:35;;;;;;;2.13;1.20;;;;;;;11.93;100.00;101212.44;6186844;28;20482;-79
2021/12/31 06:00:37;;;;;;;3.38;1.20;;;;;;;11.97;100.00;101218.41;6182579;28;20046;-79
2021/12/31 06:03:38;;;;;;;1.70;1.20;;;;;;;11.95;100.00;101218.50;6187434;28;20055;-79
2021/12/31 06:06:39;;;;;;;3.00;1.70;;;;;;;11.96;100.00;101220.19;6190976;28;20134;-79
2021/12/31 06:09:42;;;;;;;1.35;1.20;;;;;;;12.00;100.00;101207.72;6177599;28;20073;-76
2021/12/31 06:12:44;;;;;;;1.50;1.38;;;;;;;11.95;100.00;101212.38;6189593;28;20058;-78
2021/12/31 06:15:47;;;;;;;1.48;1.08;;;;;;;11.99;100.00;101211.28;6198741;28;20192;-78
2021/12/31 06:18:48;;;;;;;2.60;1.38;;;;;;;11.93;100.00;101201.91;6203753;28;20050;-79
2021/12/31 06:21:50;;;;;;;7.40;1.42;;;;;;;11.93;100.00;101200.13;6203286;28;20050;-78
2021/12/31 06:24:53;;;;;;;5.30;0.95;;;;;;;11.95;100.00;101189.53;6189438;28;20391;-78
2021/12/31 06:27:54;;;;;;;5.60;1.20;;;;;;;11.93;100.00;101196.66;6179235;28;20058;-78
2021/12/31 06:30:56;;;;;;;0.70;0.70;;;;;;;11.99;100.00;101187.56;6185243;28;20058;-78
2021/12/31 06:33:57;;;;;;;1.10;0.90;;;;;;;12.04;100.00;101196.09;6186036;28;20051;-78
2021/12/31 06:36:58;;;;;;;1.38;0.93;;;;;;;12.04;100.00;101186.41;6199212;28;20050;-79
2021/12/31 06:40:04;;;;;;;0.65;0.65;;;;;;;12.01;100.00;101181.28;6192947;28;20046;-79
2021/12/31 06:43:06;;;;;;;1.90;1.00;;;;;;;11.99;100.00;101171.75;6202271;28;20054;-78
2021/12/31 06:46:07;;;;;;;2.10;1.02;;;;;;;11.85;100.00;101172.47;6202439;28;20073;-78
2021/12/31 06:49:08;;;;;;;0.77;0.77;;;;;;;11.78;100.00;101166.66;6202237;28;20057;-78
2021/12/31 06:52:09;;;;;;;1.42;0.63;;;;;;;11.71;100.00;101157.34;6203045;28;20054;-78
2021/12/31 06:55:12;;;;;;;3.03;0.90;;;;;;;11.66;100.00;101152.34;6192987;28;20055;-78
2021/12/31 06:58:15;;;;;;;2.53;0.95;;;;;;;11.62;100.00;101155.19;6198702;28;20046;-79
2021/12/31 07:01:16;;;;;;;2.22;1.05;;;;;;;11.57;100.00;101157.22;6153631;29;20059;-78
2021/12/31 07:04:17;;;;;;;1.02;0.77;;;;;;;11.50;100.00;101140.91;6153874;29;20518;-79
2021/12/31 07:07:19;;;;;;;0.68;0.60;;;;;;;11.51;100.00;101147.00;6165440;28;20043;-79
2021/12/31 07:10:22;;;;;;;2.47;0.80;;;;;;;11.55;100.00;101159.09;6177940;28;20056;-80
2021/12/31 07:13:23;;;;;;;1.63;0.75;;;;;;;11.55;100.00;101172.25;6179859;28;20047;-80
2021/12/31 07:16:24;;;;;;;0.68;0.63;;;;;;;11.51;100.00;101161.03;6179681;28;20050;-80
2021/12/31 07:19:26;;;;;;;1.65;0.80;;;;;;;11.56;100.00;101173.94;6188602;28;20055;-80
2021/12/31 07:22:27;;;;;;;0.63;0.60;;;;;;;11.62;100.00;101163.94;6206083;28;20501;-80
2021/12/31 07:25:29;;;;;;;1.15;0.77;;;;;;;11.54;100.00;101160.88;6203190;28;20050;-81
2021/12/31 07:28:31;;;;;;;1.77;0.70;;;;;;;11.53;100.00;101153.88;6191935;28;20434;-80
2021/12/31 07:31:32;;;;;;;0.98;0.65;;;;;;;11.51;100.00;101149.66;6180373;28;20062;-80
2021/12/31 07:34:33;;;;;;;3.03;0.75;;;;;;;11.59;100.00;101153.59;6180302;28;20058;-80
2021/12/31 07:37:37;;;;;;;1.27;0.73;;;;;;;11.63;100.00;101147.25;6182909;28;20097;-80
2021/12/31 07:40:41;;;;;;;1.50;0.90;;;;;;;11.61;100.00;101146.44;6180417;28;20129;-80
2021/12/31 07:43:43;;;;;;;1.60;0.90;;;;;;;11.85;100.00;101147.00;6180375;28;20078;-81
2021/12/31 07:46:46;;;;;;;0.60;0.60;;;;;;;11.81;100.00;101155.97;6184380;28;20494;-81
2021/12/31 07:49:47;;;;;;;0.77;0.55;;;;;;;11.87;100.00;101173.28;6180793;28;20495;-80
2021/12/31 07:52:48;;;;;;;1.20;0.65;;;;;;;12.01;100.00;101172.53;6179499;28;20400;-81
2021/12/31 07:55:51;;;;;;;0.60;0.60;;;;;;;12.02;100.00;101174.25;6180197;28;20058;-80
2021/12/31 07:58:52;;;;;;;1.35;0.90;;;;;;;12.08;100.00;101197.63;6165865;28;20058;-79
2021/12/31 08:01:54;;;;;;;1.48;0.80;;;;;;;11.99;100.00;101192.81;6154289;28;20051;-80
2021/12/31 08:04:55;;;;;;;0.75;0.75;;;;;;;12.02;100.00;101190.91;6157665;28;20047;-80
2021/12/31 08:07:57;;;;;;;1.20;0.90;;;;;;;12.08;100.00;101190.59;6168526;28;20058;-79
2021/12/31 08:10:59;;;;;;;1.15;0.90;;;;;;;12.10;100.00;101180.81;6182358;28;20062;-80
2021/12/31 08:14:01;;;;;;;1.30;0.80;;;;;;;12.12;100.00;101186.00;6179369;28;20418;-78
2021/12/31 08:17:02;;;;;;;3.15;0.85;;;;;;;12.16;100.00;101177.84;6195171;28;20054;-79
2021/12/31 08:20:04;;;;;;;2.08;0.90;;;;;;;12.21;100.00;101182.03;6191973;28;20080;-81
2021/12/31 08:23:07;;;;;;;2.88;0.80;;;;;;;12.21;100.00;101182.88;6199244;28;20058;-77
2021/12/31 08:26:10;;;;;;;1.38;1.02;;;;;;;12.26;100.00;101177.34;6199546;28;20413;-78
2021/12/31 08:29:12;;;;;;;3.40;0.75;;;;;;;12.26;100.00;101183.47;6180139;28;20061;-80
2021/12/31 08:32:14;;;;;;;2.35;1.17;;;;;;;12.32;100.00;101183.16;6179028;28;20104;-79
2021/12/31 08:35:15;;;;;;;0.80;0.80;;;;;;;12.32;100.00;101180.53;6171745;28;20054;-78
2021/12/31 08:38:16;;;;;;;1.75;1.00;;;;;;;12.36;100.00;101181.22;6174719;28;20047;-78
2021/12/31 08:41:19;;;;;;;1.40;0.80;;;;;;;12.34;100.00;101168.09;6168912;28;20051;-79
2021/12/31 08:44:21;;;;;;;1.48;0.88;;;;;;;12.36;100.00;101171.53;6167693;28;20055;-78
2021/12/31 08:47:22;;;;;;;1.35;0.90;;;;;;;12.36;100.00;101178.59;6172886;28;20058;-78
2021/12/31 08:50:23;;;;;;;0.90;0.82;;;;;;;12.35;100.00;101176.84;6178085;28;20061;-79
2021/12/31 08:53:25;;;;;;;1.73;0.98;;;;;;;12.41;100.00;101174.75;6184118;28;20050;-80
2021/12/31 08:56:27;;;;;;;2.55;0.80;;;;;;;12.40;100.00;101183.59;6182649;28;20043;-80
2021/12/31 08:59:29;;;;;;;0.82;0.82;;;;;;;12.42;100.00;101189.63;6186153;28;20050;-79
2021/12/31 09:02:31;;;;;;;0.70;0.70;;;;;;;12.40;100.00;101196.78;6186002;28;20062;-77
2021/12/31 09:05:33;;;;;;;0.85;0.70;;;;;;;12.35;100.00;101198.81;6182680;28;20051;-78
2021/12/31 09:08:35;;;;;;;1.17;0.68;;;;;;;12.38;100.00;101193.38;6181706;28;20071;-78
2021/12/31 09:11:37;;;;;;;1.20;0.90;;;;;;;12.42;100.00;101201.97;6180345;28;20055;-80
2021/12/31 09:14:39;;;;;;;0.60;0.50;;;;;;;12.38;100.00;101200.44;6185249;28;20054;-79
2021/12/31 09:17:41;;;;;;;2.22;0.65;;;;;;;12.55;100.00;101189.84;6185260;28;20526;-80
2021/12/31 09:20:42;;;;;;;1.45;0.95;;;;;;;12.50;100.00;101202.41;6191661;28;20058;-81
2021/12/31 09:24:05;;;;;;;3.08;1.02;;;;;;;12.54;100.00;101203.94;6199546;28;20061;-78
2021/12/31 09:27:07;;;;;;;2.55;0.80;;;;;;;12.55;100.00;101216.19;6174815;28;20532;-80
2021/12/31 09:30:10;;;;;;;1.40;0.90;;;;;;;12.62;100.00;101220.19;6161857;28;20494;-82
2021/12/31 09:33:12;;;;;;;0.93;0.55;;;;;;;12.65;100.00;101208.63;6162881;28;20043;-82
2021/12/31 09:36:13;;;;;;;6.22;0.70;;;;;;;12.74;100.00;101220.47;6182614;28;20098;-81
2021/12/31 09:39:15;;;;;;;0.47;0.47;;;;;;;12.69;100.00;101204.91;6179127;28;20050;-80
2021/12/31 09:42:17;;;;;;;0.55;0.52;;;;;;;12.80;100.00;101199.03;6165516;28;20052;-81
2021/12/31 09:45:19;;;;;;;0.50;0.50;;;;;;;12.79;100.00;101221.91;6161625;28;20050;-79
2021/12/31 09:48:23;;;;;;;1.20;0.85;;;;;;;12.80;100.00;101217.47;6180531;28;20050;-78
2021/12/31 09:51:25;;;;;;;0.95;0.90;;;;;;;12.92;100.00;101215.03;6178344;28;20094;-79
2021/12/31 09:54:26;;;;;;;1.48;1.23;;;;;;;12.91;100.00;101213.31;6184144;28;20402;-76
2021/12/31 09:57:29;;;;;;;1.33;0.90;;;;;;;12.93;100.00;101203.53;6185965;28;20050;-76
2021/12/31 10:00:31;;;;;;;0.88;0.80;;;;;;;12.93;100.00;101203.53;6175276;28;20418;-80
2021/12/31 10:03:34;;;;;;;1.60;0.90;;;;;;;12.92;100.00;101198.34;6175308;28;20047;-77
2021/12/31 10:06:35;;;;;;;4.63;0.90;;;;;;;12.91;100.00;101197.50;6173421;28;20047;-78
2021/12/31 10:09:38;;;;;;;0.85;0.65;;;;;;;12.94;100.00;101185.91;6171709;28;20565;-71
2021/12/31 10:12:49;;;;;;;1.02;0.73;;;;;;;12.86;100.00;101203.97;6174504;28;20486;-77
2021/12/31 10:15:51;;;;;;;1.83;0.70;;;;;;;12.88;100.00;101204.72;6179246;28;20433;-79
2021/12/31 10:19:07;;;;;;;0.75;0.60;;;;;;;12.94;100.00;101210.53;6184181;28;20047;-79
2021/12/31 10:22:17;;;;;;;1.10;0.80;;;;;;;12.98;100.00;101211.19;6179248;28;20074;-78
2021/12/31 10:25:21;;;;;;;4.03;0.82;;;;;;;12.85;100.00;101212.78;6178269;28;20051;-78
2021/12/31 10:28:23;;;;;;;1.77;0.90;;;;;;;12.82;100.00;101218.25;6174035;28;20054;-77
2021/12/31 10:31:27;;;;;;;1.27;0.73;;;;;;;12.84;100.00;101216.38;6174262;28;20059;-78
2021/12/31 10:34:30;;;;;;;2.33;0.80;;;;;;;12.80;100.00;101206.94;6175393;28;20047;-77
2021/12/31 10:37:41;;;;;;;0.73;0.63;;;;;;;12.74;100.00;101209.91;6165161;28;20053;-78
2021/12/31 10:40:44;;;;;;;1.65;0.70;;;;;;;12.74;100.00;101209.91;6173808;28;20565;-77
2021/12/31 10:43:57;;;;;;;1.85;0.82;;;;;;;12.78;100.00;101200.91;6172434;28;20517;-79
2021/12/31 10:47:09;;;;;;;0.80;0.80;;;;;;;12.78;100.00;101195.63;6168773;28;20054;-78
2021/12/31 10:50:16;;;;;;;5.18;0.77;;;;;;;12.78;100.00;101193.00;6165996;28;20050;-77
2021/12/31 10:53:32;;;;;;;2.30;0.90;;;;;;;12.75;100.00;101190.50;6163141;28;20050;-78
2021/12/31 10:56:39;;;;;;;0.70;0.60;;;;;;;12.81;100.00;101208.63;6163597;28;20422;-76
2021/12/31 10:59:42;;;;;;;0.65;0.50;;;;;;;12.86;100.00;101207.47;6173642;28;20061;-78
2021/12/31 11:02:43;;;;;;;3.35;0.80;;;;;;;13.00;100.00;101216.41;6179184;28;20525;-80
2021/12/31 11:05:45;;;;;;;0.70;0.70;;;;;;;12.90;100.00;101214.28;6180409;28;20046;-77
2021/12/31 11:08:49;;;;;;;0.73;0.73;;;;;;;12.94;100.00;101214.94;6177375;28;20061;-79
2021/12/31 11:11:52;;;;;;;2.65;0.82;;;;;;;12.90;100.00;101218.69;6181591;28;20064;-80
2021/12/31 11:14:55;;;;;;;1.92;0.70;;;;;;;12.87;100.00;101218.84;6182639;28;20054;-77
2021/12/31 11:17:57;;;;;;;3.90;0.77;;;;;;;12.89;100.00;101214.34;6174114;28;20422;-77
2021/12/31 11:21:01;;;;;;;2.92;0.70;;;;;;;12.86;100.00;101194.28;6173934;28;20047;-79
2021/12/31 11:24:30;;;;;;;1.48;0.70;;;;;;;12.88;100.00;101179.19;6166228;28;20051;-77
2021/12/31 11:27:34;;;;;;;0.68;0.65;;;;;;;12.94;100.00;101186.78;6171644;28;20101;-78
2021/12/31 11:30:39;;;;;;;1.70;0.70;;;;;;;12.93;100.00;101174.50;6175873;28;20102;-79
2021/12/31 11:33:41;;;;;;;0.90;0.80;;;;;;;12.97;100.00;101182.25;6172085;28;20054;-77
2021/12/31 11:36:43;;;;;;;1.17;0.93;;;;;;;12.94;100.00;101180.63;6169488;28;20061;-77
2021/12/31 11:39:45;;;;;;;1.25;0.65;;;;;;;12.98;100.00;101179.53;6169541;28;20043;-76
2021/12/31 11:43:14;;;;;;;3.47;0.80;;;;;;;12.91;100.00;101188.75;6167620;28;20097;-76
2021/12/31 11:46:45;;;;;;;1.00;0.80;;;;;;;12.83;100.00;101190.94;6180367;28;20043;-77
2021/12/31 11:49:47;;;;;;;0.90;0.70;;;;;;;12.87;100.00;101179.28;6175375;28;20046;-78
2021/12/31 11:53:01;;;;;;;1.88;0.95;;;;;;;12.82;100.00;101174.28;6167711;28;20061;-76
2021/12/31 11:56:02;;;;;;;0.75;0.70;;;;;;;12.81;100.00;101156.75;6174194;28;20042;-77
2021/12/31 11:59:28;;;;;;;1.85;1.00;;;;;;;12.84;100.00;101153.06;6177798;28;20541;-76
2021/12/31 12:02:36;;;;;;;2.15;0.90;;;;;;;12.79;100.00;101155.13;6198200;28;20073;-78
2021/12/31 12:05:42;;;;;;;1.38;0.90;;;;;;;12.82;100.00;101158.44;6181562;28;20080;-77
2021/12/31 12:08:51;;;;;;;0.95;0.75;;;;;;;12.73;100.00;101156.31;6174553;28;20042;-77
2021/12/31 12:12:03;;;;;;;0.63;0.63;;;;;;;12.77;100.00;101157.84;6174505;28;20054;-76
2021/12/31 12:15:37;;;;;;;0.77;0.50;;;;;;;12.73;100.00;101151.06;6170193;28;20051;-77
2021/12/31 12:18:53;;;;;;;0.80;0.80;;;;;;;12.68;100.00;101151.31;6164785;28;20407;-76
2021/12/31 12:21:54;;;;;;;1.83;0.70;;;;;;;12.74;100.00;101141.34;6169044;28;20058;-75
2021/12/31 12:24:57;;;;;;;3.47;1.10;;;;;;;12.70;100.00;101130.13;6169276;28;20051;-76
2021/12/31 12:28:03;;;;;;;1.85;0.88;;;;;;;12.73;100.00;101123.84;6170762;28;20503;-77
2021/12/31 12:31:16;;;;;;;1.00;0.63;;;;;;;12.73;100.00;101111.50;6192285;28;20073;-78
2021/12/31 12:34:29;;;;;;;0.88;0.73;;;;;;;12.71;100.00;101115.97;6184461;28;20421;-78
2021/12/31 12:37:31;;;;;;;1.27;0.82;;;;;;;12.67;100.00;101109.19;6157421;28;20047;-79
2021/12/31 12:40:37;;;;;;;1.73;1.00;;;;;;;12.73;100.00;101102.72;6166087;28;20050;-78
2021/12/31 12:43:46;;;;;;;1.15;0.73;;;;;;;12.69;100.00;101099.41;6173375;28;20047;-77
2021/12/31 12:46:54;;;;;;;0.95;0.80;;;;;;;12.66;100.00;101089.88;6170602;28;20054;-79
2021/12/31 12:49:58;;;;;;;1.65;0.80;;;;;;;12.67;100.00;101075.78;6171913;28;20097;-76
2021/12/31 12:52:59;;;;;;;1.80;0.73;;;;;;;12.65;100.00;101063.59;6170785;28;20044;-77
2021/12/31 12:56:06;;;;;;;0.90;0.75;;;;;;;12.63;100.00;101061.06;6171154;28;20055;-76
2021/12/31 12:59:09;;;;;;;1.52;0.80;;;;;;;12.70;100.00;101054.50;6172044;28;20055;-77
2021/12/31 13:02:10;;;;;;;2.72;0.70;;;;;;;12.73;100.00;101066.66;6171626;28;20055;-77
2021/12/31 13:05:15;;;;;;;1.92;0.75;;;;;;;12.69;100.00;101062.50;6181463;28;20077;-76
2021/12/31 13:08:17;;;;;;;2.70;0.90;;;;;;;12.71;100.00;101076.44;6181684;28;20050;-76
2021/12/31 13:11:20;;;;;;;0.65;0.50;;;;;;;12.77;100.00;101072.63;6171543;28;20081;-75
2021/12/31 13:14:24;;;;;;;0.82;0.52;;;;;;;12.73;100.00;101073.72;6171829;28;20055;-76
2021/12/31 13:17:27;;;;;;;2.03;0.77;;;;;;;12.75;100.00;101077.13;6172867;28;20051;-77
2021/12/31 13:20:32;;;;;;;1.65;0.65;;;;;;;12.63;100.00;101076.03;6165426;28;20054;-77
2021/12/31 13:23:35;;;;;;;0.98;0.75;;;;;;;12.58;100.00;101054.34;6169582;28;20065;-75
2021/12/31 13:26:36;;;;;;;1.30;0.73;;;;;;;12.60;100.00;101058.59;6172417;28;20058;-76
2021/12/31 13:29:39;;;;;;;3.55;1.20;;;;;;;12.54;100.00;101064.22;6174171;28;20050;-77
2021/12/31 13:32:43;;;;;;;1.10;0.77;;;;;;;12.53;100.00;101072.19;6177874;28;20042;-75
2021/12/31 13:35:46;;;;;;;0.90;0.75;;;;;;;12.64;100.00;101073.31;6198043;28;20058;-75
2021/12/31 13:39:07;;;;;;;1.27;0.70;;;;;;;12.59;100.00;101071.88;6198089;28;20053;-78
2021/12/31 13:42:12;;;;;;;1.13;0.60;;;;;;;12.59;100.00;101067.44;6172484;28;20498;-76
2021/12/31 13:45:20;;;;;;;1.30;0.90;;;;;;;12.61;100.00;101069.97;6172070;28;20054;-76
2021/12/31 13:48:21;;;;;;;0.80;0.70;;;;;;;12.58;100.00;101067.50;6173159;28;20059;-76
2021/12/31 13:51:31;;;;;;;0.68;0.50;;;;;;;12.57;100.00;101063.19;6177862;28;20050;-77
2021/12/31 13:54:36;;;;;;;;;;;;;;;12.50;100.00;101056.56;6198352;28;20525;-74
2021/12/31 13:57:37;;;;;;;1.45;1.02;;;;;;;12.46;100.00;101065.59;6173091;28;19922;-77
2021/12/31 14:00:41;;;;;;;2.20;0.60;;;;;;;12.49;100.00;101060.13;6167498;28;20044;-77
2021/12/31 14:03:42;;;;;;;1.27;0.90;;;;;;;12.54;100.00;101066.00;6167665;28;20054;-78